createdAt,value
2022-10-17T00:01:00.923Z,15.93
2022-10-17T00:03:37.643Z,16.37
2022-10-17T00:06:09.071Z,14.07
2022-10-17T00:08:37.856Z,13.43
2022-10-17T00:11:12.216Z,12.73
2022-10-17T00:13:40.540Z,11.60
2022-10-17T00:16:08.339Z,11.67
2022-10-17T00:18:36.126Z,12.40
2022-10-17T00:21:04.093Z,12.90
2022-10-17T00:23:31.913Z,14.17
2022-10-17T00:26:05.894Z,14.43
2022-10-17T00:28:33.987Z,17.90
2022-10-17T00:31:04.469Z,16.93
2022-10-17T00:33:33.538Z,14.33
2022-10-17T00:36:14.490Z,14.43
2022-10-17T00:38:44.039Z,15.10
2022-10-17T00:41:14.156Z,15.27
2022-10-17T00:44:03.110Z,16.47
2022-10-17T00:46:40.088Z,14.27
2022-10-17T00:49:11.773Z,15.77
2022-10-17T00:51:47.639Z,15.57
2022-10-17T00:54:18.084Z,15.03
2022-10-17T00:56:48.001Z,14.63
2022-10-17T00:59:17.774Z,15.60
2022-10-17T01:01:54.486Z,14.43
2022-10-17T01:04:22.195Z,13.53
2022-10-17T01:06:50.022Z,14.23
2022-10-17T01:09:17.796Z,13.30
2022-10-17T01:12:15.965Z,15.27
2022-10-17T01:15:03.267Z,13.87
2022-10-17T01:18:17.579Z,15.30
2022-10-17T01:21:00.909Z,14.80
2022-10-17T01:23:41.000Z,16.23
2022-10-17T01:26:33.525Z,23.00
2022-10-17T01:29:13.252Z,15.20
2022-10-17T01:32:04.368Z,19.43
2022-10-17T01:34:45.487Z,23.57
2022-10-17T01:37:22.049Z,25.07
2022-10-17T01:40:11.309Z,24.63
2022-10-17T01:42:57.891Z,24.10
2022-10-17T01:45:43.491Z,16.83
2022-10-17T01:48:17.440Z,19.47
2022-10-17T01:50:58.799Z,21.33
2022-10-17T01:53:33.473Z,20.20
2022-10-17T01:56:03.919Z,20.23
2022-10-17T01:58:36.588Z,19.87
2022-10-17T02:01:07.600Z,16.97
2022-10-17T02:03:35.860Z,17.83
2022-10-17T02:06:06.845Z,16.23
2022-10-17T02:08:44.685Z,16.23
2022-10-17T02:11:18.913Z,15.10
2022-10-17T02:13:57.407Z,15.80
2022-10-17T02:16:38.264Z,15.10
2022-10-17T02:19:30.999Z,17.10
2022-10-17T02:22:35.688Z,16.17
2022-10-17T02:25:14.247Z,15.40
2022-10-17T02:27:54.272Z,15.37
2022-10-17T02:30:37.172Z,17.47
2022-10-17T02:33:18.460Z,15.20
2022-10-17T02:35:49.757Z,14.77
2022-10-17T02:38:19.320Z,16.27
2022-10-17T02:40:49.067Z,18.23
2022-10-17T02:43:17.165Z,16.10
2022-10-17T02:45:44.861Z,16.57
2022-10-17T02:48:24.090Z,15.23
2022-10-17T02:51:08.166Z,16.43
2022-10-17T02:54:00.437Z,17.70
2022-10-17T02:56:31.265Z,16.47
2022-10-17T02:59:03.016Z,18.07
2022-10-17T03:01:31.060Z,19.07
2022-10-17T03:04:10.194Z,17.30
2022-10-17T03:06:38.174Z,19.63
2022-10-17T03:09:06.702Z,20.50
2022-10-17T03:11:34.763Z,19.97
2022-10-17T03:14:02.224Z,18.30
2022-10-17T03:16:29.975Z,19.13
2022-10-17T03:18:57.791Z,19.03
2022-10-17T03:21:25.565Z,19.00
2022-10-17T03:23:53.430Z,17.60
2022-10-17T03:26:22.925Z,16.93
2022-10-17T03:28:53.715Z,15.93
2022-10-17T03:31:23.033Z,17.80
2022-10-17T03:33:52.568Z,18.57
2022-10-17T03:36:20.541Z,18.53
2022-10-17T03:38:49.468Z,19.97
2022-10-17T03:41:18.195Z,17.77
2022-10-17T03:43:46.153Z,18.20
2022-10-17T03:46:13.934Z,19.63
2022-10-17T03:48:41.867Z,19.43
2022-10-17T03:51:10.284Z,19.43
2022-10-17T03:53:44.642Z,19.57
2022-10-17T03:56:18.092Z,20.77
2022-10-17T03:58:52.145Z,21.43
2022-10-17T04:01:20.687Z,19.07
2022-10-17T04:03:53.260Z,18.07
2022-10-17T04:06:21.673Z,19.93
2022-10-17T04:08:50.387Z,17.20
2022-10-17T04:11:23.899Z,20.93
2022-10-17T04:13:56.973Z,24.43
2022-10-17T04:16:26.339Z,30.07
2022-10-17T04:19:00.634Z,23.47
2022-10-17T04:21:32.066Z,21.07
2022-10-17T04:24:05.168Z,19.97
2022-10-17T04:26:53.584Z,18.57
2022-10-17T04:29:24.729Z,19.23
2022-10-17T04:31:56.163Z,19.97
2022-10-17T04:34:31.771Z,19.30
2022-10-17T04:36:59.418Z,18.27
2022-10-17T04:39:28.021Z,18.30
2022-10-17T04:41:56.683Z,20.13
2022-10-17T04:44:24.744Z,18.80
2022-10-17T04:46:53.498Z,19.97
2022-10-17T04:49:21.373Z,19.73
2022-10-17T04:51:53.215Z,18.70
2022-10-17T04:54:27.769Z,17.97
2022-10-17T04:57:03.354Z,18.30
2022-10-17T04:59:31.436Z,19.20
2022-10-17T05:02:15.772Z,19.93
2022-10-17T05:04:43.887Z,19.17
2022-10-17T05:07:13.110Z,18.27
2022-10-17T05:09:47.656Z,17.70
2022-10-17T05:12:17.874Z,18.57
2022-10-17T05:14:47.198Z,17.80
2022-10-17T05:17:15.627Z,18.53
2022-10-17T05:19:43.494Z,18.57
2022-10-17T05:22:11.249Z,17.77
2022-10-17T05:24:40.561Z,17.97
2022-10-17T05:27:09.917Z,18.03
2022-10-17T05:29:39.195Z,18.10
2022-10-17T05:32:16.871Z,18.20
2022-10-17T05:34:44.992Z,19.47
2022-10-17T05:37:12.675Z,20.13
2022-10-17T05:39:45.851Z,20.00
2022-10-17T05:42:15.659Z,19.37
2022-10-17T05:44:43.798Z,20.57
2022-10-17T05:47:11.960Z,20.07
2022-10-17T05:49:45.062Z,18.80
2022-10-17T05:52:17.062Z,21.87
2022-10-17T05:54:58.773Z,21.43
2022-10-17T05:57:26.919Z,22.63
2022-10-17T05:59:55.944Z,21.83
2022-10-17T06:02:23.736Z,22.77
2022-10-17T06:04:51.802Z,21.73
2022-10-17T06:07:21.676Z,22.70
2022-10-17T06:09:50.126Z,22.13
2022-10-17T06:12:17.940Z,23.50
2022-10-17T06:14:46.722Z,21.97
2022-10-17T06:17:16.378Z,26.23
2022-10-17T06:19:45.355Z,23.87
2022-10-17T06:22:15.621Z,23.37
2022-10-17T06:24:44.018Z,21.97
2022-10-17T06:27:12.998Z,23.93
2022-10-17T06:29:42.254Z,22.90
2022-10-17T06:32:12.769Z,21.30
2022-10-17T06:34:43.989Z,19.20
2022-10-17T06:37:11.885Z,19.13
2022-10-17T06:39:41.714Z,21.20
2022-10-17T06:42:16.511Z,21.60
2022-10-17T06:45:04.686Z,20.57
2022-10-17T06:47:39.961Z,19.07
2022-10-17T06:50:27.787Z,18.87
2022-10-17T06:53:07.454Z,20.33
2022-10-17T06:55:54.077Z,19.93
2022-10-17T06:58:36.114Z,19.20
2022-10-17T07:01:22.620Z,18.90
2022-10-17T07:03:54.634Z,19.37
2022-10-17T07:06:24.764Z,20.50
2022-10-17T07:08:55.821Z,19.20
2022-10-17T07:11:23.680Z,17.97
2022-10-17T07:13:53.271Z,17.70
2022-10-17T07:16:22.312Z,18.33
2022-10-17T07:18:59.754Z,18.90
2022-10-17T07:21:27.615Z,18.67
2022-10-17T07:23:54.824Z,18.30
2022-10-17T07:26:23.125Z,21.50
2022-10-17T07:28:54.434Z,19.38
2022-10-17T07:31:42.175Z,18.50
2022-10-17T07:34:09.338Z,16.88
2022-10-17T07:36:36.920Z,17.50
2022-10-17T07:39:06.034Z,17.27
2022-10-17T07:41:35.369Z,19.23
2022-10-17T07:44:04.673Z,17.45
2022-10-17T07:46:37.406Z,18.00
2022-10-17T07:49:05.741Z,17.30
2022-10-17T07:51:34.299Z,17.13
2022-10-17T07:54:01.691Z,19.83
2022-10-17T07:56:29.760Z,20.00
2022-10-17T08:01:30.919Z,17.73
2022-10-17T08:03:58.131Z,18.52
2022-10-17T08:06:25.638Z,19.00
2022-10-17T08:08:52.819Z,18.20
2022-10-17T08:11:20.300Z,19.33
2022-10-17T08:13:47.389Z,18.90
2022-10-17T08:16:14.768Z,18.48
2022-10-17T08:18:43.100Z,18.15
2022-10-17T08:21:13.111Z,17.75
2022-10-17T08:23:40.748Z,17.35
2022-10-17T08:26:10.888Z,18.67
2022-10-17T08:28:40.628Z,18.55
2022-10-17T08:31:11.561Z,18.33
2022-10-17T08:33:39.410Z,16.65
2022-10-17T08:36:07.756Z,16.42
2022-10-17T08:38:36.862Z,19.48
2022-10-17T08:41:12.090Z,20.02
2022-10-17T08:44:09.455Z,22.67
2022-10-17T08:46:40.978Z,22.92
2022-10-17T08:49:31.816Z,21.08
2022-10-17T08:52:05.448Z,19.98
2022-10-17T08:54:43.179Z,19.58
2022-10-17T08:57:16.139Z,18.60
2022-10-17T08:59:44.604Z,18.60
2022-10-17T09:02:21.091Z,17.20
2022-10-17T09:05:23.977Z,17.67
2022-10-17T09:08:15.561Z,16.98
2022-10-17T09:11:00.402Z,17.63
2022-10-17T09:13:46.948Z,17.23
2022-10-17T09:16:37.455Z,17.33
2022-10-17T09:19:12.956Z,17.80
2022-10-17T09:21:46.076Z,16.95
2022-10-17T09:24:44.821Z,18.67
2022-10-17T09:27:24.178Z,17.30
2022-10-17T09:30:02.149Z,18.98
2022-10-17T09:32:29.593Z,18.08
2022-10-17T09:34:57.084Z,20.25
2022-10-17T09:37:33.223Z,18.65
2022-10-17T09:40:00.621Z,16.70
2022-10-17T09:42:28.476Z,17.63
2022-10-17T09:45:15.441Z,19.73
2022-10-17T09:48:12.471Z,18.90
2022-10-17T09:50:40.768Z,17.83
2022-10-17T09:53:22.321Z,17.58
2022-10-17T09:56:02.733Z,20.75
2022-10-17T09:58:44.459Z,20.15
2022-10-17T10:01:22.722Z,21.00
2022-10-17T10:04:16.076Z,20.50
2022-10-17T10:07:05.582Z,18.83
2022-10-17T10:09:36.951Z,19.35
2022-10-17T10:12:19.352Z,17.60
2022-10-17T10:14:47.365Z,20.20
2022-10-17T10:17:38.680Z,19.08
2022-10-17T10:20:29.058Z,19.42
2022-10-17T10:23:17.772Z,21.27
2022-10-17T10:25:59.409Z,20.70
2022-10-17T10:28:36.532Z,18.85
2022-10-17T10:31:09.916Z,18.30
2022-10-17T10:33:44.180Z,17.63
2022-10-17T10:36:14.950Z,19.25
2022-10-17T10:38:43.402Z,17.92
2022-10-17T10:41:12.491Z,17.95
2022-10-17T10:43:46.931Z,17.98
2022-10-17T10:46:18.660Z,18.42
2022-10-17T10:49:00.550Z,17.45
2022-10-17T10:51:45.038Z,19.38
2022-10-17T10:54:20.128Z,18.60
2022-10-17T10:56:59.415Z,18.50
2022-10-17T10:59:46.231Z,18.30
2022-10-17T11:02:40.590Z,15.63
2022-10-17T11:05:33.292Z,16.33
2022-10-17T11:08:16.391Z,16.90
2022-10-17T11:11:04.629Z,17.75
2022-10-17T11:13:37.687Z,16.30
2022-10-17T11:16:21.983Z,15.55
2022-10-17T11:18:55.061Z,16.33
2022-10-17T11:24:21.428Z,17.05
2022-10-17T11:26:56.802Z,16.65
2022-10-17T11:29:32.301Z,16.27
2022-10-17T11:32:09.537Z,16.77
2022-10-17T11:34:49.861Z,17.02
2022-10-17T11:37:27.744Z,16.83
2022-10-17T11:40:24.604Z,16.95
2022-10-17T11:43:06.939Z,16.40
2022-10-17T11:45:39.297Z,16.35
2022-10-17T11:48:13.959Z,15.38
2022-10-17T11:53:56.087Z,14.52
2022-10-17T11:56:59.076Z,16.77
2022-10-17T11:59:52.938Z,16.85
2022-10-17T12:02:35.729Z,16.38
2022-10-17T12:05:08.927Z,15.70
2022-10-17T12:07:58.347Z,14.73
2022-10-17T12:10:37.627Z,14.70
2022-10-17T12:13:33.741Z,14.65
2022-10-17T12:16:23.860Z,15.10
2022-10-17T12:19:02.297Z,15.60
2022-10-17T12:22:08.077Z,14.70
2022-10-17T12:25:00.360Z,15.02
2022-10-17T12:27:39.762Z,16.38
2022-10-17T12:30:16.512Z,24.50
2022-10-17T12:33:13.369Z,20.10
2022-10-17T12:35:41.029Z,14.20
2022-10-17T12:38:19.010Z,14.82
2022-10-17T12:40:52.806Z,15.63
2022-10-17T12:43:29.408Z,13.88
2022-10-17T12:46:03.753Z,14.13
2022-10-17T12:48:34.303Z,12.95
2022-10-17T12:51:34.162Z,13.82
2022-10-17T12:54:12.867Z,13.65
2022-10-17T12:56:44.394Z,12.05
2022-10-17T12:59:20.892Z,13.27
2022-10-17T13:01:52.255Z,13.55
2022-10-17T13:04:20.354Z,13.30
2022-10-17T13:06:51.150Z,13.65
2022-10-17T13:09:27.563Z,12.93
2022-10-17T13:11:57.645Z,17.63
2022-10-17T13:14:26.646Z,20.15
2022-10-17T13:17:00.032Z,16.80
2022-10-17T13:19:41.074Z,12.13
2022-10-17T13:22:44.352Z,12.82
2022-10-17T13:25:17.537Z,18.30
2022-10-17T13:27:45.700Z,12.15
2022-10-17T13:30:31.208Z,12.82
2022-10-17T13:33:01.039Z,12.68
2022-10-17T13:38:28.972Z,12.07
2022-10-17T13:41:02.049Z,13.30
2022-10-17T13:43:33.761Z,11.00
2022-10-17T13:46:25.287Z,14.90
2022-10-17T13:48:53.505Z,19.13
2022-10-17T13:51:21.471Z,18.58
2022-10-17T13:53:49.158Z,14.55
2022-10-17T13:56:28.935Z,16.50
2022-10-17T13:59:08.353Z,12.02
2022-10-17T14:01:38.449Z,11.02
2022-10-17T14:04:13.705Z,12.48
2022-10-17T14:06:52.133Z,11.02
2022-10-17T14:09:20.373Z,12.43
2022-10-17T14:12:07.369Z,11.48
2022-10-17T14:14:58.125Z,12.35
2022-10-17T14:17:29.339Z,12.90
2022-10-17T14:23:20.901Z,13.27
2022-10-17T14:25:41.468Z,12.98
2022-10-17T14:28:12.626Z,13.25
2022-10-17T14:31:03.235Z,13.02
2022-10-17T14:33:32.007Z,14.85
2022-10-17T14:36:02.478Z,14.10
2022-10-17T14:38:30.765Z,14.73
2022-10-17T14:41:43.862Z,13.38
2022-10-17T14:44:27.785Z,12.73
2022-10-17T14:47:18.170Z,14.70
2022-10-17T14:49:51.711Z,14.30
2022-10-17T14:52:19.199Z,14.27
2022-10-17T14:54:50.739Z,14.93
2022-10-17T14:57:40.691Z,14.75
2022-10-17T15:00:10.221Z,15.45
2022-10-17T15:02:37.752Z,15.18
2022-10-17T15:05:10.674Z,16.27
2022-10-17T15:07:41.867Z,17.13
2022-10-17T15:10:33.851Z,16.77
2022-10-17T15:15:52.218Z,16.60
2022-10-17T15:18:20.280Z,16.83
2022-10-17T15:20:51.973Z,15.75
2022-10-17T15:23:27.051Z,17.60
2022-10-17T15:25:54.574Z,17.05
2022-10-17T15:28:21.883Z,16.25
2022-10-17T15:30:49.576Z,18.05
2022-10-17T15:33:16.805Z,16.52
2022-10-17T15:35:44.940Z,18.85
2022-10-17T15:38:17.845Z,17.85
2022-10-17T15:40:49.203Z,16.02
2022-10-17T15:43:19.784Z,16.95
2022-10-17T15:45:48.283Z,16.30
2022-10-17T15:48:30.397Z,17.27
2022-10-17T15:50:58.784Z,16.98
2022-10-17T15:53:26.085Z,17.52
2022-10-17T15:55:53.559Z,18.00
2022-10-17T15:58:21.060Z,17.58
2022-10-17T16:00:49.105Z,18.40
2022-10-17T16:03:16.835Z,18.20
2022-10-17T16:05:44.407Z,22.63
2022-10-17T16:08:12.031Z,21.95
2022-10-17T16:10:40.665Z,19.77
2022-10-17T16:13:20.030Z,20.90
2022-10-17T16:15:49.882Z,20.75
2022-10-17T16:18:17.426Z,22.33
2022-10-17T16:20:45.070Z,20.15
2022-10-17T16:23:13.774Z,21.90
2022-10-17T16:25:42.300Z,22.40
2022-10-17T16:28:11.978Z,22.75
2022-10-17T16:30:45.133Z,21.27
2022-10-17T16:33:13.157Z,22.55
2022-10-17T16:35:40.961Z,22.38
2022-10-17T16:38:08.860Z,21.67
2022-10-17T16:40:39.068Z,22.80
2022-10-17T16:43:07.142Z,21.83
2022-10-17T16:45:34.821Z,23.42
2022-10-17T16:48:03.208Z,24.48
2022-10-17T16:50:35.451Z,24.65
2022-10-17T16:53:04.179Z,25.25
2022-10-17T16:55:32.637Z,24.35
2022-10-17T16:58:01.789Z,24.73
2022-10-17T17:00:29.878Z,23.33
2022-10-17T17:02:57.962Z,24.02
2022-10-17T17:05:25.549Z,24.45
2022-10-17T17:07:53.263Z,25.67
2022-10-17T17:10:20.916Z,25.90
2022-10-17T17:12:48.562Z,26.70
2022-10-17T17:15:16.209Z,26.33
2022-10-17T17:17:50.531Z,24.20
2022-10-17T17:20:19.853Z,23.92
2022-10-17T17:22:47.373Z,26.90
2022-10-17T17:25:15.001Z,29.20
2022-10-17T17:27:42.472Z,28.80
2022-10-17T17:30:11.082Z,25.58
2022-10-17T17:32:38.606Z,26.75
2022-10-17T17:35:06.345Z,25.70
2022-10-17T17:37:35.176Z,26.65
2022-10-17T17:40:03.419Z,26.80
2022-10-17T17:42:30.804Z,26.35
2022-10-17T17:44:58.332Z,26.20
2022-10-17T17:47:29.204Z,26.83
2022-10-17T17:49:57.032Z,28.58
2022-10-17T17:52:24.763Z,25.48
2022-10-17T17:54:52.641Z,26.55
2022-10-17T17:57:20.084Z,24.88
2022-10-17T17:59:49.913Z,25.60
2022-10-17T18:02:18.049Z,26.00
2022-10-17T18:04:46.218Z,23.33
2022-10-17T18:07:13.952Z,24.35
2022-10-17T18:09:42.069Z,22.48
2022-10-17T18:12:09.953Z,22.40
2022-10-17T18:14:37.644Z,24.52
2022-10-17T18:17:05.397Z,23.30
2022-10-17T18:19:34.153Z,20.75
2022-10-17T18:22:01.749Z,21.20
2022-10-17T18:24:29.505Z,22.15
2022-10-17T18:26:59.982Z,20.40
2022-10-17T18:29:29.598Z,21.58
2022-10-17T18:31:57.146Z,20.40
2022-10-17T18:34:25.537Z,22.50
2022-10-17T18:36:54.382Z,20.95
2022-10-17T18:39:22.559Z,23.00
2022-10-17T18:41:51.600Z,22.42
2022-10-17T18:44:19.693Z,22.27
2022-10-17T18:46:47.397Z,21.85
2022-10-17T18:49:23.670Z,23.15
2022-10-17T18:51:51.490Z,23.15
2022-10-17T18:54:21.651Z,21.80
2022-10-17T18:56:54.255Z,22.70
2022-10-17T18:59:22.491Z,23.25
2022-10-17T19:01:50.053Z,24.08
2022-10-17T19:04:18.233Z,24.75
2022-10-17T19:06:45.730Z,22.13
2022-10-17T19:09:14.713Z,24.40
2022-10-17T19:11:43.049Z,22.52
2022-10-17T19:14:13.653Z,24.08
2022-10-17T19:16:51.263Z,22.40
2022-10-17T19:19:22.889Z,23.65
2022-10-17T19:21:51.315Z,23.38
2022-10-17T19:24:27.143Z,23.90
2022-10-17T19:26:57.073Z,25.42
2022-10-17T19:29:27.344Z,26.20
2022-10-17T19:34:24.490Z,23.95
2022-10-17T19:36:52.523Z,25.55
2022-10-17T19:39:23.516Z,24.88
2022-10-17T19:41:52.909Z,24.23
2022-10-17T19:44:20.646Z,24.52
2022-10-17T19:46:49.431Z,24.88
2022-10-17T19:49:18.110Z,25.20
2022-10-17T19:51:46.162Z,25.67
2022-10-17T19:54:16.661Z,24.35
2022-10-17T19:56:44.339Z,24.30
2022-10-17T19:59:14.970Z,24.55
2022-10-17T20:01:43.098Z,23.98
2022-10-17T20:04:14.599Z,24.08
2022-10-17T20:06:42.630Z,24.27
2022-10-17T20:09:15.668Z,24.63
2022-10-17T20:11:45.441Z,23.80
2022-10-17T20:14:14.138Z,25.92
2022-10-17T20:16:42.082Z,26.08
2022-10-17T20:19:13.792Z,25.02
2022-10-17T20:21:43.315Z,24.10
2022-10-17T20:24:14.762Z,26.27
2022-10-17T20:26:43.051Z,26.08
2022-10-17T20:29:19.548Z,25.50
2022-10-17T20:31:48.237Z,25.67
2022-10-17T20:34:18.282Z,23.48
2022-10-17T20:36:46.668Z,26.55
2022-10-17T20:39:16.325Z,28.10
2022-10-17T20:41:46.145Z,25.75
2022-10-17T20:44:14.700Z,26.10
2022-10-17T20:46:52.760Z,27.13
2022-10-17T20:49:25.279Z,26.30
2022-10-17T20:51:52.621Z,26.17
2022-10-17T20:54:22.055Z,27.25
2022-10-17T20:56:49.740Z,26.95
2022-10-17T20:59:18.454Z,25.38
2022-10-17T21:01:46.430Z,25.42
2022-10-17T21:04:44.898Z,26.70
2022-10-17T21:07:02.929Z,26.42
2022-10-17T21:09:30.838Z,26.85
2022-10-17T21:11:58.318Z,27.42
2022-10-17T21:14:26.020Z,28.30
2022-10-17T21:16:53.375Z,26.25
2022-10-17T21:19:21.935Z,25.30
2022-10-17T21:21:49.404Z,26.85
2022-10-17T21:24:19.314Z,27.48
2022-10-17T21:26:50.071Z,24.88
2022-10-17T21:29:17.442Z,25.83
2022-10-17T21:31:45.055Z,26.40
2022-10-17T21:34:18.568Z,26.00
2022-10-17T21:36:45.914Z,26.42
2022-10-17T21:39:14.405Z,26.38
2022-10-17T21:41:42.428Z,25.63
2022-10-17T21:44:18.804Z,25.88
2022-10-17T21:46:47.247Z,25.80
2022-10-17T21:49:17.832Z,26.15
2022-10-17T21:51:45.620Z,23.45
2022-10-17T21:54:13.363Z,25.17
2022-10-17T21:56:41.252Z,26.42
2022-10-17T21:59:09.262Z,24.17
2022-10-17T22:01:42.157Z,24.13
2022-10-17T22:04:15.386Z,24.88
2022-10-17T22:06:44.709Z,25.55
2022-10-17T22:09:21.429Z,25.50
2022-10-17T22:11:51.586Z,24.23
2022-10-17T22:14:21.335Z,27.33
2022-10-17T22:16:49.693Z,26.80
2022-10-17T22:19:20.590Z,25.70
2022-10-17T22:21:47.980Z,25.58
2022-10-17T22:24:17.262Z,25.42
2022-10-17T22:26:45.510Z,26.25
2022-10-17T22:29:13.451Z,24.90
2022-10-17T22:31:40.941Z,25.13
2022-10-17T22:34:11.637Z,24.70
2022-10-17T22:36:39.413Z,26.53
2022-10-17T22:39:07.110Z,26.37
2022-10-17T22:41:34.502Z,25.97
2022-10-17T22:44:02.070Z,25.13
2022-10-17T22:46:29.353Z,26.00
2022-10-17T22:48:56.785Z,28.53
2022-10-17T22:53:51.349Z,27.13
2022-10-17T22:56:20.972Z,28.90
2022-10-17T22:58:48.852Z,29.37
2022-10-17T23:01:19.897Z,26.93
2022-10-17T23:03:48.069Z,27.30
2022-10-17T23:06:15.698Z,27.23
2022-10-17T23:08:43.597Z,27.33
2022-10-17T23:11:11.201Z,26.57
2022-10-17T23:13:39.835Z,27.00
2022-10-17T23:16:07.786Z,27.60
2022-10-17T23:18:35.535Z,28.23
2022-10-17T23:21:02.923Z,26.05
2022-10-17T23:23:30.302Z,26.77
2022-10-17T23:26:11.160Z,27.90
2022-10-17T23:28:39.142Z,25.25
2022-10-17T23:31:15.088Z,26.92
2022-10-17T23:33:42.787Z,25.50
2022-10-17T23:36:11.501Z,26.05
2022-10-17T23:38:40.533Z,26.88
2022-10-17T23:41:08.353Z,25.57
2022-10-17T23:43:36.205Z,25.10
2022-10-17T23:46:05.364Z,24.73
2022-10-17T23:48:32.849Z,27.25
2022-10-17T23:51:00.081Z,26.13
2022-10-17T23:53:27.486Z,24.52
2022-10-17T23:55:55.217Z,27.10
2022-10-17T23:58:22.627Z,27.27
